Time;durP1;ratioP1;P1;durP2;ratioP2;P2;SDS_P1;SDS_P2;PMS_P1;PMS_P2;Temp;Humidity;BMP_temperature;BMP_pressure;BME280_temperature;BME280_humidity;BME280_pressure;Samples;Min_cycle;Max_cycle;Signal;HPM_P1;HPM_P2
2023/10/12 00:02:27;;;;;;;5.03;2.50;;;;;;;;;;5070508;28;20444;-55
2023/10/12 00:05:00;;;;;;;4.67;2.20;;;;;;;;;;5062284;28;20471;-53
2023/10/12 00:07:34;;;;;;;10.37;2.67;;;;;;;;;;5060953;28;20453;-52
2023/10/12 00:10:19;;;;;;;5.70;2.90;;;;;;;;;;5069869;28;20540;-53
2023/10/12 00:12:48;;;;;;;5.93;2.07;;;;;;;;;;5070934;28;20829;-54
2023/10/12 00:15:23;;;;;;;6.40;2.60;;;;;;;;;;5071598;28;20861;-53
2023/10/12 00:17:51;;;;;;;5.73;2.63;;;;;;;;;;5072797;28;20510;-55
2023/10/12 00:20:22;;;;;;;5.17;1.93;;;;;;;;;;5071762;28;20531;-53
2023/10/12 00:22:49;;;;;;;3.73;2.90;;;;;;;;;;5069588;28;20471;-52
2023/10/12 00:25:17;;;;;;;4.33;1.97;;;;;;;;;;5068698;28;20951;-54
2023/10/12 00:27:44;;;;;;;4.27;2.10;;;;;;;;;;5072266;28;20528;-52
2023/10/12 00:30:14;;;;;;;7.13;2.87;;;;;;;;;;5072073;28;20444;-52
2023/10/12 00:32:42;;;;;;;3.30;2.40;;;;;;;;;;5070050;28;20455;-52
2023/10/12 00:35:11;;;;;;;6.30;2.60;;;;;;;;;;5071293;28;20538;-52
2023/10/12 00:37:41;;;;;;;4.30;2.47;;;;;;;;;;5069460;28;20850;-53
2023/10/12 00:40:23;;;;;;;3.93;2.80;;;;;;;;;;5069166;28;20452;-52
2023/10/12 00:42:52;;;;;;;5.10;3.00;;;;;;;;;;5070636;28;20947;-52
2023/10/12 00:45:28;;;;;;;11.40;3.00;;;;;;;;;;5071939;28;20455;-52
2023/10/12 00:47:56;;;;;;;4.87;2.80;;;;;;;;;;5070990;28;20544;-53
2023/10/12 00:50:27;;;;;;;5.00;2.27;;;;;;;;;;5072515;28;20549;-54
2023/10/12 00:52:57;;;;;;;5.67;2.60;;;;;;;;;;5069564;28;20445;-52
2023/10/12 00:55:35;;;;;;;6.90;2.80;;;;;;;;;;5067058;28;20456;-54
2023/10/12 00:58:04;;;;;;;6.73;2.90;;;;;;;;;;5071692;28;20865;-55
2023/10/12 01:00:35;;;;;;;5.60;3.07;;;;;;;;;;5065106;28;20526;-52
2023/10/12 01:03:19;;;;;;;10.60;2.40;;;;;;;;;;5072395;28;20448;-55
2023/10/12 01:06:11;;;;;;;6.60;2.47;;;;;;;;;;5071747;28;20445;-52
2023/10/12 01:08:34;;;;;;;6.40;2.87;;;;;;;;;;5070177;28;20477;-53
2023/10/12 01:11:06;;;;;;;5.50;2.30;;;;;;;;;;5070051;28;20982;-52
2023/10/12 01:13:34;;;;;;;6.33;2.57;;;;;;;;;;5071552;28;20531;-53
2023/10/12 01:16:08;;;;;;;5.67;2.63;;;;;;;;;;5067384;28;20453;-52
2023/10/12 01:18:36;;;;;;;5.43;2.30;;;;;;;;;;5071160;28;20917;-52
2023/10/12 01:21:11;;;;;;;6.80;2.63;;;;;;;;;;5064035;28;20530;-54
2023/10/12 01:23:41;;;;;;;4.50;2.40;;;;;;;;;;5071248;28;20539;-53
2023/10/12 01:26:11;;;;;;;6.40;2.90;;;;;;;;;;5067028;28;20977;-52
2023/10/12 01:28:43;;;;;;;6.47;2.90;;;;;;;;;;5066838;28;20565;-52
2023/10/12 01:31:11;;;;;;;5.50;2.70;;;;;;;;;;5069654;28;20724;-53
2023/10/12 01:33:41;;;;;;;5.73;2.47;;;;;;;;;;5070113;28;20445;-52
2023/10/12 01:36:08;;;;;;;6.60;2.50;;;;;;;;;;5065663;28;20947;-53
2023/10/12 01:38:37;;;;;;;8.80;3.20;;;;;;;;;;5067964;28;20538;-54
2023/10/12 01:41:09;;;;;;;4.33;2.40;;;;;;;;;;5066144;28;20517;-54
2023/10/12 01:43:37;;;;;;;5.67;2.60;;;;;;;;;;5069321;28;20951;-52
2023/10/12 01:46:08;;;;;;;12.40;2.77;;;;;;;;;;5071157;28;20448;-54
2023/10/12 01:48:37;;;;;;;8.33;2.30;;;;;;;;;;5070573;28;20867;-53
2023/10/12 01:51:16;;;;;;;5.27;2.30;;;;;;;;;;5070369;28;20517;-53
2023/10/12 01:53:44;;;;;;;3.93;2.40;;;;;;;;;;5070922;28;20545;-52
2023/10/12 01:56:13;;;;;;;5.30;2.57;;;;;;;;;;5064144;28;21048;-52
2023/10/12 01:58:44;;;;;;;5.33;2.53;;;;;;;;;;5070151;28;20885;-52
2023/10/12 02:01:18;;;;;;;8.93;2.90;;;;;;;;;;5065505;28;20477;-54
2023/10/12 02:03:47;;;;;;;4.60;2.60;;;;;;;;;;5070447;28;20447;-52
2023/10/12 02:06:16;;;;;;;4.80;2.33;;;;;;;;;;5070603;28;20483;-52
2023/10/12 02:08:47;;;;;;;10.90;3.40;;;;;;;;;;5069397;28;20873;-53
2023/10/12 02:11:35;;;;;;;5.93;2.83;;;;;;;;;;5070592;28;20452;-53
2023/10/12 02:14:04;;;;;;;4.43;2.43;;;;;;;;;;5070399;28;20468;-52
2023/10/12 02:16:31;;;;;;;5.23;2.93;;;;;;;;;;5067375;28;20448;-52
2023/10/12 02:19:03;;;;;;;6.03;2.50;;;;;;;;;;5070474;28;20494;-54
2023/10/12 02:21:33;;;;;;;5.83;2.33;;;;;;;;;;5067289;28;20484;-53
2023/10/12 02:24:11;;;;;;;6.07;2.50;;;;;;;;;;5070463;28;20453;-52
2023/10/12 02:26:51;;;;;;;5.40;2.90;;;;;;;;;;5061765;28;20968;-52
2023/10/12 02:29:18;;;;;;;5.60;2.43;;;;;;;;;;5069218;28;20499;-52
2023/10/12 02:31:55;;;;;;;5.27;2.73;;;;;;;;;;5069916;28;20444;-53
2023/10/12 02:34:25;;;;;;;7.43;2.63;;;;;;;;;;5070440;28;20576;-52
2023/10/12 02:37:17;;;;;;;6.63;2.97;;;;;;;;;;5062947;28;20480;-53
2023/10/12 02:39:46;;;;;;;8.87;3.03;;;;;;;;;;5067405;28;21008;-52
2023/10/12 02:42:18;;;;;;;6.00;2.90;;;;;;;;;;5064336;28;20445;-53
2023/10/12 02:45:07;;;;;;;5.80;2.90;;;;;;;;;;5068210;28;20471;-52
2023/10/12 02:47:34;;;;;;;4.53;3.07;;;;;;;;;;5069503;28;20522;-52
2023/10/12 02:50:15;;;;;;;4.80;3.00;;;;;;;;;;5069597;28;20818;-52
2023/10/12 02:52:44;;;;;;;9.07;3.10;;;;;;;;;;5069799;28;20820;-53
2023/10/12 02:55:24;;;;;;;4.93;2.97;;;;;;;;;;5070332;28;20527;-53
2023/10/12 02:57:56;;;;;;;4.87;2.40;;;;;;;;;;5069830;28;20921;-52
2023/10/12 03:00:30;;;;;;;5.63;2.50;;;;;;;;;;5061656;28;20535;-53
2023/10/12 03:03:06;;;;;;;4.77;2.73;;;;;;;;;;5069398;28;20447;-52
2023/10/12 03:05:45;;;;;;;3.80;2.83;;;;;;;;;;5069266;28;20604;-53
2023/10/12 03:08:14;;;;;;;5.10;2.87;;;;;;;;;;5073522;28;20826;-52
2023/10/12 03:11:00;;;;;;;4.60;2.60;;;;;;;;;;5074209;28;20793;-52
2023/10/12 03:13:34;;;;;;;7.10;4.00;;;;;;;;;;5073816;28;20445;-52
2023/10/12 03:16:08;;;;;;;10.73;2.80;;;;;;;;;;5074169;28;20474;-52
2023/10/12 03:18:36;;;;;;;5.50;2.30;;;;;;;;;;5074322;28;20487;-52
2023/10/12 03:21:04;;;;;;;5.90;3.13;;;;;;;;;;5073833;28;20467;-52
2023/10/12 03:23:34;;;;;;;4.80;2.57;;;;;;;;;;5073328;28;20456;-52
2023/10/12 03:26:06;;;;;;;5.53;2.80;;;;;;;;;;5073891;28;20479;-52
2023/10/12 03:28:44;;;;;;;3.97;2.77;;;;;;;;;;5072820;28;20472;-53
2023/10/12 03:31:23;;;;;;;6.23;2.50;;;;;;;;;;5070361;28;20448;-52
2023/10/12 03:33:54;;;;;;;3.40;2.57;;;;;;;;;;5073019;28;20457;-54
2023/10/12 03:36:25;;;;;;;6.00;2.60;;;;;;;;;;5073385;28;20501;-53
2023/10/12 03:42:11;;;;;;;7.50;3.27;;;;;;;;;;5007934;28;20443;-55
2023/10/12 03:44:50;;;;;;;4.70;2.70;;;;;;;;;;5067636;28;20452;-52
2023/10/12 03:47:24;;;;;;;7.60;2.30;;;;;;;;;;5072036;28;20878;-53
2023/10/12 03:49:59;;;;;;;7.50;2.90;;;;;;;;;;5070504;28;20522;-53
2023/10/12 03:52:34;;;;;;;4.60;2.87;;;;;;;;;;5069004;28;20447;-52
2023/10/12 03:55:19;;;;;;;6.47;3.00;;;;;;;;;;5073272;28;20848;-52
2023/10/12 03:57:51;;;;;;;6.50;3.07;;;;;;;;;;5072451;28;20626;-53
2023/10/12 04:00:32;;;;;;;5.30;3.07;;;;;;;;;;5072841;28;20501;-54
2023/10/12 04:03:04;;;;;;;5.53;2.83;;;;;;;;;;5072245;28;20444;-53
2023/10/12 04:05:45;;;;;;;4.17;2.63;;;;;;;;;;5073019;28;20471;-53
2023/10/12 04:14:11;;;;;;;5.60;2.63;;;;;;;;;;5069836;28;20480;-52
2023/10/12 04:16:45;;;;;;;7.00;4.07;;;;;;;;;;5072772;28;20448;-53
2023/10/12 04:19:15;;;;;;;5.23;2.90;;;;;;;;;;5072325;28;20570;-53
2023/10/12 04:22:05;;;;;;;7.10;2.80;;;;;;;;;;5072074;28;20957;-51
2023/10/12 04:24:43;;;;;;;6.47;2.80;;;;;;;;;;5072337;28;20452;-53
2023/10/12 04:30:00;;;;;;;4.63;2.67;;;;;;;;;;5065982;28;20507;-52
2023/10/12 04:32:51;;;;;;;5.90;2.93;;;;;;;;;;5071106;28;20527;-54
2023/10/12 04:35:27;;;;;;;6.90;3.10;;;;;;;;;;5067691;28;20455;-53
2023/10/12 04:37:56;;;;;;;3.83;2.23;;;;;;;;;;5065005;28;20475;-52
2023/10/12 04:40:37;;;;;;;5.23;2.03;;;;;;;;;;5072029;28;20452;-53
2023/10/12 04:43:06;;;;;;;5.30;2.80;;;;;;;;;;5063822;28;20527;-52
2023/10/12 04:46:06;;;;;;;5.40;2.93;;;;;;;;;;5066177;28;20888;-52
2023/10/12 04:48:33;;;;;;;6.83;3.47;;;;;;;;;;5071597;28;20463;-52
2023/10/12 04:51:06;;;;;;;7.10;2.97;;;;;;;;;;5069787;28;20440;-52
2023/10/12 04:53:53;;;;;;;8.43;3.83;;;;;;;;;;5070289;28;20931;-52
2023/10/12 04:56:23;;;;;;;5.47;2.53;;;;;;;;;;5072069;28;20451;-52
2023/10/12 04:58:57;;;;;;;8.20;3.00;;;;;;;;;;5072224;28;20789;-52
2023/10/12 05:01:39;;;;;;;4.57;2.53;;;;;;;;;;5065516;28;20457;-52
2023/10/12 05:04:09;;;;;;;5.27;2.80;;;;;;;;;;5069845;28;20460;-54
2023/10/12 05:06:46;;;;;;;9.30;3.57;;;;;;;;;;5062590;28;20959;-52
2023/10/12 05:09:18;;;;;;;4.90;3.00;;;;;;;;;;5064593;28;20456;-54
2023/10/12 05:11:46;;;;;;;9.20;3.50;;;;;;;;;;5065160;28;20498;-52
2023/10/12 05:14:15;;;;;;;7.63;2.60;;;;;;;;;;5071238;28;20955;-52
2023/10/12 05:16:45;;;;;;;6.57;2.83;;;;;;;;;;5059944;28;20533;-52
2023/10/12 05:19:13;;;;;;;3.83;2.47;;;;;;;;;;5060102;28;20574;-52
2023/10/12 05:21:41;;;;;;;5.50;2.40;;;;;;;;;;5061340;28;20441;-52
2023/10/12 05:24:08;;;;;;;4.83;2.70;;;;;;;;;;5060926;28;20499;-52
2023/10/12 05:26:36;;;;;;;11.50;3.77;;;;;;;;;;5059767;28;20447;-54
2023/10/12 05:29:30;;;;;;;9.10;3.30;;;;;;;;;;5077631;23;20615;-90
2023/10/12 05:32:05;;;;;;;4.50;2.57;;;;;;;;;;5050804;28;20454;-90
2023/10/12 05:34:44;;;;;;;6.60;2.80;;;;;;;;;;5039612;28;20449;-90
2023/10/12 05:37:24;;;;;;;6.13;2.77;;;;;;;;;;5042090;28;20464;-89
2023/10/12 05:39:52;;;;;;;6.47;2.93;;;;;;;;;;5042405;28;20486;-90
2023/10/12 05:42:22;;;;;;;6.07;3.17;;;;;;;;;;5051950;28;20433;-89
2023/10/12 05:44:49;;;;;;;9.97;4.43;;;;;;;;;;5047604;28;20571;-89
2023/10/12 05:47:18;;;;;;;5.20;3.70;;;;;;;;;;5046826;28;20522;-90
2023/10/12 05:49:50;;;;;;;8.00;5.30;;;;;;;;;;5045126;28;20525;-90
2023/10/12 05:52:17;;;;;;;5.83;3.20;;;;;;;;;;5041757;28;20447;-90
2023/10/12 05:54:45;;;;;;;4.70;3.00;;;;;;;;;;5046782;28;21039;-90
2023/10/12 05:57:19;;;;;;;7.70;3.83;;;;;;;;;;5051903;28;20846;-90
2023/10/12 05:59:46;;;;;;;12.13;3.77;;;;;;;;;;5050563;28;21076;-91
2023/10/12 06:02:17;;;;;;;8.00;3.57;;;;;;;;;;5051083;28;20502;-90
2023/10/12 06:04:44;;;;;;;9.47;4.00;;;;;;;;;;5050648;28;20441;-90
2023/10/12 06:07:14;;;;;;;7.60;4.73;;;;;;;;;;5039867;28;20952;-91
2023/10/12 06:09:41;;;;;;;8.33;2.60;;;;;;;;;;5045312;28;20457;-90
2023/10/12 06:12:09;;;;;;;6.70;3.63;;;;;;;;;;5042794;28;20450;-89
2023/10/12 06:14:37;;;;;;;6.53;2.87;;;;;;;;;;5042572;28;20450;-90
2023/10/12 06:17:06;;;;;;;9.00;4.80;;;;;;;;;;5035753;28;20829;-90
2023/10/12 06:19:35;;;;;;;9.67;5.07;;;;;;;;;;5047714;28;20461;-90
2023/10/12 06:22:13;;;;;;;8.67;4.03;;;;;;;;;;5061977;28;20893;-90
2023/10/12 06:24:44;;;;;;;7.33;4.47;;;;;;;;;;5055483;28;20434;-90
2023/10/12 06:27:23;;;;;;;8.50;3.17;;;;;;;;;;5049711;28;20806;-90
2023/10/12 06:29:51;;;;;;;6.80;3.43;;;;;;;;;;5058427;28;20456;-90
2023/10/12 06:32:19;;;;;;;9.60;4.10;;;;;;;;;;5069268;28;20448;-90
2023/10/12 06:34:47;;;;;;;6.17;3.33;;;;;;;;;;5067889;28;20444;-90
2023/10/12 06:40:37;;;;;;;7.90;4.00;;;;;;;;;;5065396;28;20484;-89
2023/10/12 06:45:51;;;;;;;7.50;3.50;;;;;;;;;;5074277;28;20451;-90
2023/10/12 06:48:43;;;;;;;10.00;6.70;;;;;;;;;;5070642;28;20498;-89
2023/10/12 06:51:13;;;;;;;15.30;10.63;;;;;;;;;;5061249;28;20916;-90
2023/10/12 06:53:44;;;;;;;13.83;12.43;;;;;;;;;;5069890;28;20436;-90
2023/10/12 06:56:25;;;;;;;16.10;13.07;;;;;;;;;;5085105;28;20458;-91
2023/10/12 06:59:09;;;;;;;13.10;9.50;;;;;;;;;;5087345;28;20471;-89
2023/10/12 07:01:39;;;;;;;16.13;9.77;;;;;;;;;;5055906;28;20445;-91
2023/10/12 07:04:12;;;;;;;30.70;18.17;;;;;;;;;;5060069;28;20453;-91
2023/10/12 07:06:40;;;;;;;66.50;36.87;;;;;;;;;;5061714;28;20472;-90
2023/10/12 07:09:08;;;;;;;21.83;15.67;;;;;;;;;;5072176;28;20836;-90
2023/10/12 07:11:39;;;;;;;25.20;12.53;;;;;;;;;;5070111;28;20510;-90
2023/10/12 07:14:07;;;;;;;13.07;9.93;;;;;;;;;;5053216;28;20438;-90
2023/10/12 07:16:52;;;;;;;15.60;10.57;;;;;;;;;;5067424;28;20461;-91
2023/10/12 07:19:22;;;;;;;15.40;10.10;;;;;;;;;;5061020;28;20473;-91
2023/10/12 07:21:53;;;;;;;13.70;10.00;;;;;;;;;;5059608;28;20540;-90
2023/10/12 07:24:22;;;;;;;10.20;8.53;;;;;;;;;;5071247;28;20436;-91
2023/10/12 07:26:51;;;;;;;10.70;7.77;;;;;;;;;;5071415;28;20503;-89
2023/10/12 07:29:35;;;;;;;13.53;7.63;;;;;;;;;;5070797;28;20514;-90
2023/10/12 07:32:09;;;;;;;13.63;8.73;;;;;;;;;;5070364;28;20463;-90
2023/10/12 07:34:36;;;;;;;11.30;7.90;;;;;;;;;;5071005;28;20463;-90
2023/10/12 07:37:05;;;;;;;11.53;9.23;;;;;;;;;;5071782;28;20982;-90
2023/10/12 07:39:42;;;;;;;17.10;9.90;;;;;;;;;;5070986;28;20848;-89
2023/10/12 07:42:14;;;;;;;11.60;7.30;;;;;;;;;;5064340;28;20465;-89
2023/10/12 07:44:42;;;;;;;8.03;7.20;;;;;;;;;;5070128;28;20448;-90
2023/10/12 07:47:18;;;;;;;9.60;7.33;;;;;;;;;;5069488;28;20468;-89
2023/10/12 07:49:57;;;;;;;13.07;8.40;;;;;;;;;;5070102;28;20539;-90
2023/10/12 07:52:38;;;;;;;8.33;7.37;;;;;;;;;;5071113;28;20869;-90
2023/10/12 07:55:10;;;;;;;10.77;7.70;;;;;;;;;;5073926;28;20464;-89
2023/10/12 07:57:39;;;;;;;10.60;7.57;;;;;;;;;;5074002;28;21075;-89
2023/10/12 08:03:17;;;;;;;13.67;8.43;;;;;;;;;;5074462;28;20427;-90
2023/10/12 08:05:43;;;;;;;11.60;8.50;;;;;;;;;;5074552;28;20468;-89
2023/10/12 08:08:33;;;;;;;10.50;7.20;;;;;;;;;;5073818;28;20444;-89
2023/10/12 08:11:00;;;;;;;13.40;7.97;;;;;;;;;;5072154;28;20452;-89
2023/10/12 08:13:32;;;;;;;9.87;7.33;;;;;;;;;;5072976;28;20862;-90
2023/10/12 08:16:03;;;;;;;10.40;6.73;;;;;;;;;;5072331;28;20541;-89
2023/10/12 08:21:26;;;;;;;11.00;7.17;;;;;;;;;;5067755;28;20843;-89
2023/10/12 08:23:57;;;;;;;6.10;5.47;;;;;;;;;;5072145;28;20448;-89
2023/10/12 08:26:35;;;;;;;8.57;5.83;;;;;;;;;;5072439;28;20970;-89
2023/10/12 08:29:17;;;;;;;12.50;8.50;;;;;;;;;;5072110;28;20458;-90
2023/10/12 08:31:43;;;;;;;13.27;7.53;;;;;;;;;;5097459;28;20420;-89
2023/10/12 08:34:41;;;;;;;8.27;6.70;;;;;;;;;;5074528;28;20444;-90
2023/10/12 08:37:17;;;;;;;9.17;6.60;;;;;;;;;;5072811;28;20919;-89
2023/10/12 08:39:51;;;;;;;11.47;6.57;;;;;;;;;;5072997;28;20456;-89
2023/10/12 08:45:08;;;;;;;6.80;4.67;;;;;;;;;;5065775;28;20432;-90
2023/10/12 08:47:44;;;;;;;8.97;5.07;;;;;;;;;;5072509;28;20483;-90
2023/10/12 08:50:47;;;;;;;6.97;4.57;;;;;;;;;;5068308;28;20424;-90
2023/10/12 08:53:15;;;;;;;6.90;4.77;;;;;;;;;;5068271;28;20451;-89
2023/10/12 08:55:42;;;;;;;7.73;4.47;;;;;;;;;;5073041;28;20551;-90
2023/10/12 08:58:15;;;;;;;7.00;5.40;;;;;;;;;;5073297;28;20847;-89
2023/10/12 09:01:07;;;;;;;7.20;4.97;;;;;;;;;;5072693;28;20221;-89
2023/10/12 09:03:38;;;;;;;9.93;5.57;;;;;;;;;;5071893;28;20970;-89
2023/10/12 09:06:19;;;;;;;7.53;5.40;;;;;;;;;;5068400;28;20488;-89
2023/10/12 09:08:46;;;;;;;9.67;6.50;;;;;;;;;;5072812;28;20471;-89
2023/10/12 09:11:19;;;;;;;9.23;5.63;;;;;;;;;;5072769;28;20441;-89
2023/10/12 09:13:46;;;;;;;8.70;5.00;;;;;;;;;;5072331;28;20447;-89
2023/10/12 09:16:15;;;;;;;8.80;5.33;;;;;;;;;;5072624;28;20460;-90
2023/10/12 09:18:44;;;;;;;10.40;5.73;;;;;;;;;;5071849;28;20536;-89
2023/10/12 09:21:23;;;;;;;9.07;4.23;;;;;;;;;;5069192;28;20476;-89
2023/10/12 09:23:52;;;;;;;6.83;3.67;;;;;;;;;;5071473;28;20541;-90
2023/10/12 09:26:30;;;;;;;5.20;3.50;;;;;;;;;;5066242;28;20474;-89
2023/10/12 09:29:20;;;;;;;5.33;4.43;;;;;;;;;;5067088;28;20459;-89
2023/10/12 09:31:54;;;;;;;6.63;4.40;;;;;;;;;;5070182;28;20448;-89
2023/10/12 09:37:07;;;;;;;13.97;6.70;;;;;;;;;;5068108;28;20529;-89
2023/10/12 09:39:35;;;;;;;11.70;7.33;;;;;;;;;;5072482;28;20970;-89
2023/10/12 09:42:13;;;;;;;9.77;7.37;;;;;;;;;;5074843;28;20922;-89
2023/10/12 09:44:41;;;;;;;11.10;7.60;;;;;;;;;;5074278;28;20433;-89
2023/10/12 09:47:15;;;;;;;8.20;6.47;;;;;;;;;;5074077;28;20472;-89
2023/10/12 09:49:46;;;;;;;8.97;6.00;;;;;;;;;;5074248;28;20439;-89
2023/10/12 09:52:17;;;;;;;10.50;6.20;;;;;;;;;;5075681;28;20455;-89
2023/10/12 09:54:46;;;;;;;8.90;6.30;;;;;;;;;;5072564;28;20470;-89
2023/10/12 09:57:23;;;;;;;6.97;5.83;;;;;;;;;;5068656;28;20432;-88
2023/10/12 09:59:53;;;;;;;10.93;7.17;;;;;;;;;;5073761;28;20828;-89
2023/10/12 10:05:20;;;;;;;6.67;5.23;;;;;;;;;;5087996;28;20467;-89
2023/10/12 10:07:53;;;;;;;9.53;5.30;;;;;;;;;;5072289;28;20459;-88
2023/10/12 10:10:30;;;;;;;6.23;5.50;;;;;;;;;;5065633;28;20448;-88
2023/10/12 10:12:59;;;;;;;8.20;4.70;;;;;;;;;;5063265;28;20434;-88
2023/10/12 10:15:36;;;;;;;9.57;4.00;;;;;;;;;;5066726;28;20492;-88
2023/10/12 10:18:05;;;;;;;7.90;4.93;;;;;;;;;;5065250;28;20452;-88
2023/10/12 10:20:50;;;;;;;6.57;5.20;;;;;;;;;;5059195;28;20616;-89
2023/10/12 10:23:19;;;;;;;6.93;4.50;;;;;;;;;;5059333;28;20452;-89
2023/10/12 10:25:56;;;;;;;8.17;5.67;;;;;;;;;;5055770;28;20546;-88
2023/10/12 10:28:27;;;;;;;9.20;4.50;;;;;;;;;;5062660;28;20484;-88
2023/10/12 10:30:56;;;;;;;8.97;3.80;;;;;;;;;;5056266;28;20430;-88
2023/10/12 10:33:25;;;;;;;7.13;4.30;;;;;;;;;;5061675;28;20433;-88
2023/10/12 10:36:10;;;;;;;6.30;3.97;;;;;;;;;;5062054;28;20833;-89
2023/10/12 10:38:43;;;;;;;6.00;3.93;;;;;;;;;;5060571;28;20494;-88
2023/10/12 10:41:22;;;;;;;7.03;4.17;;;;;;;;;;5062036;28;20983;-88
2023/10/12 10:43:51;;;;;;;7.43;4.80;;;;;;;;;;5060355;28;21032;-88
2023/10/12 10:46:18;;;;;;;5.23;4.00;;;;;;;;;;5068585;28;20468;-89
2023/10/12 10:48:49;;;;;;;8.20;4.20;;;;;;;;;;5064405;28;20440;-88
2023/10/12 10:51:19;;;;;;;5.70;4.87;;;;;;;;;;5066156;28;20441;-89
2023/10/12 10:53:51;;;;;;;9.87;5.20;;;;;;;;;;5067407;28;20448;-89
2023/10/12 10:56:32;;;;;;;8.00;4.47;;;;;;;;;;5070991;28;20464;-89
2023/10/12 10:58:59;;;;;;;7.47;4.50;;;;;;;;;;5068510;28;20853;-89
2023/10/12 11:01:27;;;;;;;5.20;3.50;;;;;;;;;;5068360;28;20542;-88
2023/10/12 11:03:58;;;;;;;9.83;4.10;;;;;;;;;;5064741;28;20531;-89
2023/10/12 11:06:25;;;;;;;7.60;4.40;;;;;;;;;;5066798;28;21002;-89
2023/10/12 11:09:04;;;;;;;7.37;3.93;;;;;;;;;;5068748;28;20498;-89
2023/10/12 11:11:37;;;;;;;6.17;4.50;;;;;;;;;;5070334;28;20520;-88
2023/10/12 11:14:04;;;;;;;5.77;4.13;;;;;;;;;;5070880;28;20443;-89
2023/10/12 11:16:33;;;;;;;5.50;3.83;;;;;;;;;;5070535;28;20510;-89
2023/10/12 11:19:03;;;;;;;5.70;3.60;;;;;;;;;;5071083;28;20451;-88
2023/10/12 11:21:30;;;;;;;8.70;3.97;;;;;;;;;;5070572;28;20485;-89
2023/10/12 11:23:58;;;;;;;5.13;2.80;;;;;;;;;;5071777;28;20444;-88
2023/10/12 11:26:26;;;;;;;4.93;3.40;;;;;;;;;;5070867;28;20456;-89
2023/10/12 11:29:03;;;;;;;7.80;3.77;;;;;;;;;;5075754;28;20471;-91
2023/10/12 11:31:31;;;;;;;4.03;3.23;;;;;;;;;;5076688;28;20448;-88
2023/10/12 11:33:59;;;;;;;4.93;3.20;;;;;;;;;;5072334;28;20544;-88
2023/10/12 11:36:28;;;;;;;7.37;4.03;;;;;;;;;;5085376;28;20492;-89
2023/10/12 11:39:03;;;;;;;5.10;3.53;;;;;;;;;;5090471;28;20444;-87
2023/10/12 11:41:31;;;;;;;6.77;3.97;;;;;;;;;;5076114;28;20471;-88
2023/10/12 11:44:00;;;;;;;5.67;4.23;;;;;;;;;;5075474;28;21004;-88
2023/10/12 11:46:28;;;;;;;10.30;5.23;;;;;;;;;;5078059;28;20467;-88
2023/10/12 11:49:02;;;;;;;7.60;5.00;;;;;;;;;;5071783;28;20552;-88
2023/10/12 11:51:30;;;;;;;9.27;4.27;;;;;;;;;;5071871;28;20440;-88
2023/10/12 11:53:58;;;;;;;7.00;4.43;;;;;;;;;;5075109;28;20462;-88
2023/10/12 11:56:25;;;;;;;6.70;4.47;;;;;;;;;;5074507;28;20525;-89
2023/10/12 11:58:55;;;;;;;9.03;4.43;;;;;;;;;;5074509;28;20918;-88
2023/10/12 12:01:22;;;;;;;6.43;4.03;;;;;;;;;;5075312;28;20558;-88
2023/10/12 12:03:53;;;;;;;8.20;4.30;;;;;;;;;;5073033;28;20483;-88
2023/10/12 12:06:21;;;;;;;7.53;3.53;;;;;;;;;;5074768;28;20496;-88
2023/10/12 12:08:50;;;;;;;7.30;4.20;;;;;;;;;;5074721;28;20482;-88
2023/10/12 12:11:20;;;;;;;7.87;4.10;;;;;;;;;;5075101;28;20494;-88
2023/10/12 12:13:52;;;;;;;7.10;4.50;;;;;;;;;;5073972;28;20444;-88
2023/10/12 12:16:21;;;;;;;8.33;4.07;;;;;;;;;;5075360;28;20448;-88
2023/10/12 12:18:50;;;;;;;9.13;4.40;;;;;;;;;;5068282;28;20480;-88
2023/10/12 12:21:18;;;;;;;6.80;3.37;;;;;;;;;;5073663;28;20480;-88
2023/10/12 12:23:48;;;;;;;6.00;4.27;;;;;;;;;;5068834;28;20539;-88
2023/10/12 12:26:18;;;;;;;7.93;4.00;;;;;;;;;;5072304;28;20540;-88
2023/10/12 12:28:45;;;;;;;6.37;3.53;;;;;;;;;;5071732;28;20479;-89
2023/10/12 12:31:15;;;;;;;7.43;3.30;;;;;;;;;;5069834;28;20444;-87
2023/10/12 12:33:44;;;;;;;7.17;3.30;;;;;;;;;;5069977;28;20464;-88
2023/10/12 12:36:21;;;;;;;6.77;3.80;;;;;;;;;;5073354;28;20460;-89
2023/10/12 12:38:57;;;;;;;7.20;3.83;;;;;;;;;;5073273;28;20812;-89
2023/10/12 12:41:26;;;;;;;9.27;3.90;;;;;;;;;;5073918;28;20478;-90
2023/10/12 12:43:58;;;;;;;6.50;4.00;;;;;;;;;;5073919;28;20646;-89
2023/10/12 12:46:26;;;;;;;9.20;3.90;;;;;;;;;;5074497;28;20941;-89
2023/10/12 12:48:54;;;;;;;10.60;4.23;;;;;;;;;;5073893;28;20440;-88
2023/10/12 12:51:22;;;;;;;7.67;3.77;;;;;;;;;;5073332;28;20448;-89
2023/10/12 12:53:50;;;;;;;6.27;3.30;;;;;;;;;;5073303;28;20791;-89
2023/10/12 12:56:18;;;;;;;5.60;3.70;;;;;;;;;;5073332;28;20514;-88
2023/10/12 12:58:47;;;;;;;5.27;3.90;;;;;;;;;;5072361;28;20455;-89
2023/10/12 13:01:16;;;;;;;8.80;3.80;;;;;;;;;;5073480;28;20514;-89
2023/10/12 13:03:43;;;;;;;6.57;3.37;;;;;;;;;;5072888;28;20748;-88
2023/10/12 13:06:12;;;;;;;7.43;3.90;;;;;;;;;;5072766;28;21109;-89
2023/10/12 13:08:39;;;;;;;6.00;3.67;;;;;;;;;;5073274;28;20455;-89
2023/10/12 13:11:09;;;;;;;5.70;3.40;;;;;;;;;;5088398;28;20463;-89
2023/10/12 13:13:39;;;;;;;6.67;3.83;;;;;;;;;;5081097;28;20447;-89
2023/10/12 13:16:12;;;;;;;7.83;3.57;;;;;;;;;;5067831;28;21058;-89
2023/10/12 13:18:39;;;;;;;18.30;4.10;;;;;;;;;;5073750;28;20442;-89
2023/10/12 13:21:07;;;;;;;4.97;3.30;;;;;;;;;;5075497;28;20498;-89
2023/10/12 13:23:35;;;;;;;7.80;2.90;;;;;;;;;;5075644;28;20478;-89
2023/10/12 13:26:07;;;;;;;6.80;3.33;;;;;;;;;;5072832;28;20465;-89
2023/10/12 13:28:34;;;;;;;5.57;3.60;;;;;;;;;;5072260;28;20459;-89
2023/10/12 13:31:04;;;;;;;8.93;3.23;;;;;;;;;;5071201;28;20502;-89
2023/10/12 13:33:34;;;;;;;4.83;3.60;;;;;;;;;;5067786;28;20859;-88
2023/10/12 13:36:02;;;;;;;6.57;4.47;;;;;;;;;;5072201;28;20472;-89
2023/10/12 13:38:33;;;;;;;8.20;3.50;;;;;;;;;;5072535;28;20441;-89
2023/10/12 13:41:02;;;;;;;6.23;3.17;;;;;;;;;;5071776;28;20468;-89
2023/10/12 13:43:31;;;;;;;6.17;3.23;;;;;;;;;;5071616;28;20456;-89
2023/10/12 13:45:59;;;;;;;5.87;3.50;;;;;;;;;;5071197;28;20513;-89
2023/10/12 13:48:28;;;;;;;5.77;3.20;;;;;;;;;;5072135;28;21021;-89
2023/10/12 13:51:04;;;;;;;3.50;3.00;;;;;;;;;;5071801;28;20946;-89
2023/10/12 13:53:35;;;;;;;7.87;4.00;;;;;;;;;;5071600;28;20436;-88
2023/10/12 13:56:08;;;;;;;7.03;4.37;;;;;;;;;;5071519;28;20468;-89
2023/10/12 13:58:36;;;;;;;8.30;3.27;;;;;;;;;;5072002;28;20524;-89
2023/10/12 14:01:04;;;;;;;10.77;4.53;;;;;;;;;;5071687;28;20852;-89
2023/10/12 14:03:34;;;;;;;6.80;3.23;;;;;;;;;;5071696;28;20468;-87
2023/10/12 14:06:06;;;;;;;6.53;4.10;;;;;;;;;;5071809;28;20517;-89
2023/10/12 14:08:35;;;;;;;5.83;3.30;;;;;;;;;;5071659;28;20445;-89
2023/10/12 14:11:04;;;;;;;10.10;3.93;;;;;;;;;;5072229;28;20444;-89
2023/10/12 14:13:31;;;;;;;8.10;4.30;;;;;;;;;;5071700;28;20432;-89
2023/10/12 14:15:59;;;;;;;5.37;3.00;;;;;;;;;;5071556;28;20475;-89
2023/10/12 14:18:28;;;;;;;9.60;3.43;;;;;;;;;;5071481;28;20486;-89
2023/10/12 14:20:56;;;;;;;6.80;3.90;;;;;;;;;;5065011;28;20548;-89
2023/10/12 14:23:26;;;;;;;5.40;3.50;;;;;;;;;;5067412;28;20475;-89
2023/10/12 14:25:54;;;;;;;5.07;3.33;;;;;;;;;;5071168;28;20460;-89
2023/10/12 14:28:21;;;;;;;6.43;3.30;;;;;;;;;;5071469;28;20927;-89
2023/10/12 14:30:50;;;;;;;5.30;3.27;;;;;;;;;;5070841;28;20468;-89
2023/10/12 14:33:19;;;;;;;6.13;3.60;;;;;;;;;;5069159;28;20481;-89
2023/10/12 14:35:46;;;;;;;5.97;3.50;;;;;;;;;;5070191;28;20492;-89
2023/10/12 14:38:14;;;;;;;4.43;3.00;;;;;;;;;;5075941;28;20850;-89
2023/10/12 14:43:30;;;;;;;7.33;4.00;;;;;;;;;;5086017;28;20444;-89
2023/10/12 14:45:58;;;;;;;9.17;3.67;;;;;;;;;;5092027;28;20491;-89
2023/10/12 14:48:26;;;;;;;6.43;3.70;;;;;;;;;;5077545;28;20506;-89
2023/10/12 14:50:59;;;;;;;6.00;3.17;;;;;;;;;;5075577;28;20822;-89
2023/10/12 14:53:29;;;;;;;5.00;4.00;;;;;;;;;;5069587;28;20425;-89
2023/10/12 14:55:58;;;;;;;4.90;3.70;;;;;;;;;;5073843;28;20459;-89
2023/10/12 14:58:28;;;;;;;6.30;3.43;;;;;;;;;;5071402;28;20452;-89
2023/10/12 15:00:55;;;;;;;4.57;3.00;;;;;;;;;;5070223;28;20452;-89
2023/10/12 15:03:22;;;;;;;7.07;3.37;;;;;;;;;;5069766;28;21047;-89
2023/10/12 15:05:53;;;;;;;5.77;2.73;;;;;;;;;;5070393;28;20505;-89
2023/10/12 15:08:20;;;;;;;5.13;3.63;;;;;;;;;;5071468;28;20444;-89
2023/10/12 15:10:48;;;;;;;6.67;3.77;;;;;;;;;;5067229;28;20865;-89
2023/10/12 15:13:17;;;;;;;6.20;4.00;;;;;;;;;;5070295;28;20444;-89
2023/10/12 15:15:45;;;;;;;7.13;4.23;;;;;;;;;;5071217;28;20481;-90
2023/10/12 15:18:13;;;;;;;5.93;2.90;;;;;;;;;;5071494;28;20754;-90
2023/10/12 15:20:44;;;;;;;11.63;3.63;;;;;;;;;;5071004;28;20448;-90
2023/10/12 15:23:12;;;;;;;8.33;3.60;;;;;;;;;;5067827;28;20481;-90
2023/10/12 15:25:39;;;;;;;7.10;4.10;;;;;;;;;;5066261;28;20457;-89
2023/10/12 15:28:07;;;;;;;7.30;3.43;;;;;;;;;;5064231;28;20441;-90
2023/10/12 15:30:36;;;;;;;6.93;3.97;;;;;;;;;;5067244;28;20437;-90
2023/10/12 15:33:04;;;;;;;5.70;3.40;;;;;;;;;;5069898;28;20883;-90
2023/10/12 15:35:31;;;;;;;6.10;4.00;;;;;;;;;;5066609;28;20483;-90
2023/10/12 15:37:59;;;;;;;5.07;4.03;;;;;;;;;;5060165;28;20449;-90
2023/10/12 15:40:27;;;;;;;6.43;3.37;;;;;;;;;;5063067;28;21012;-90
2023/10/12 15:42:55;;;;;;;5.20;3.27;;;;;;;;;;5065983;28;20475;-90
2023/10/12 15:45:23;;;;;;;7.27;3.67;;;;;;;;;;5060876;28;21117;-90